Silver Peak Trail, Santa Catalina Island Weather observations

Data are for 10 minute period ending at time listed.
 Day   Time   Solar   Ave.   Ave.  Ave.  Vector    Max.   Stn.    Total
  of    of     Rad.   Air    Rel.  Wind   Wind     Wind   Baro.  Precip.
Year   Day            Temp.  Hum.  Speed  Dir.     Gust   Pres.         
2016   (PST)   W/m2    F      %     mph   deg.      mph    mb.     in.  
------------------------------------------------------------------------
 240   14:30  583.0    66   75.4     8     10.9    14.9    999.0   0.00  
 240   14:40  642.0    67   75.2     6    359.6    10.8    999.0   0.00  
 240   14:50  632.0    67   74.0     8      8.6    13.7    999.0   0.00  
 240   15:00  618.0    66   75.8     8     12.9    14.3    999.0   0.00  
 240   15:10  609.0    66   77.2     7      9.1    13.1    999.0   0.00  
 240   15:20  594.0    67   74.2     8      6.0    11.9    999.0   0.00  
 240   15:30  567.0    68   73.6     6      2.6    11.9    999.0   0.00  
 240   15:40  546.0    68   72.5     5      5.0     9.6    999.0   0.00  
 240   15:50  511.0    68   71.3     4      2.5    10.2    999.0   0.00  
 240   16:00  478.0    68   71.2     5    358.6     9.6    999.0   0.00  
 240   16:10  445.0    69   70.8     4      1.0     7.2    999.0   0.00  
 240   16:20  411.0    69   69.6     5      1.7    10.8    999.0   0.00  
 240   16:30  378.0    68   69.6     2      0.8     4.8    999.0   0.00  
 240   16:40  343.0    68   71.5     5      1.1     9.6    999.0   0.00  
 240   16:50  309.0    67   73.0     3      0.9     6.6    999.0   0.00  
 240   17:00  274.0    67   72.8     4      0.9     8.4    999.0   0.00  
 240   17:10  240.0    67   74.2     3      0.9     8.4    999.0   0.00  
 240   17:20  207.0    66   76.0     6      3.0     9.6    999.0   0.00  
 240   17:30  175.0    64   80.5     7     10.2    12.5    999.0   0.00  
 240   17:40  144.0    63   82.3     4      1.7     7.2    999.0   0.00  
 240   17:50  113.0    64   80.9     1      0.9     5.4    999.0   0.00  
 240   18:00   70.0    63   81.3     2      0.9     5.4    999.0   0.00  
 240   18:10   40.0    61   85.8     4      1.0     6.6    999.0   0.00  
 240   18:20   17.0    60   88.5     4      1.2     7.2    999.0   0.00  
 240   18:30    8.0    60   90.1     3      1.0     5.4    999.0   0.00  
 240   18:40    3.0    60   90.8     2      0.8     3.6    999.0   0.00  
 240   18:50    1.0    60   91.4     3      0.9     5.4    999.0   0.00  
 240   19:00    0.0    59   92.0     2      0.8     5.4    999.0   0.00  
 240   19:10    0.0    59   92.4     2      0.8     3.6    999.0   0.00  
 240   19:20    0.0    59   92.6     3      0.8     5.4    999.0   0.00  
 240   19:30    0.0    59   92.9     3      0.8     4.8    999.0   0.00  
 240   19:40    0.0    58   93.6     3      0.8     6.0    999.0   0.00  
 240   19:50    0.0    58   93.9     4      0.8     7.2    999.0   0.00  
 240   20:00    0.0    58   94.3     2      0.8     4.2    999.0   0.00  
 240   20:10    0.0    58   94.4     3      0.8     4.2    999.0   0.00  
 240   20:20    0.0    59   93.4     3      0.8     5.4    999.0   0.00  
 240   20:30    0.0    60   92.1     2      0.8     5.4    999.0   0.00  
 240   20:40    0.0    61   89.5     1      0.8     2.4    999.0   0.00  
 240   20:50    0.0    62   84.5     4      0.6     6.0    999.0   0.00  
 240   21:00    0.0    63   82.7     6    337.6     7.8    999.0   0.00  
 240   21:10    0.0    64   79.2     3    327.2     5.4    999.0   0.00  
 240   21:20    0.0    64   77.0     4    327.9     7.2    999.0   0.00  
 240   21:30    0.0    64   77.5     3    328.0     4.8    999.0   0.00  
 240   21:40    0.0    64   76.3     5    327.9     6.6    999.0   0.00  
 240   21:50    0.0    64   77.2     5    327.6     6.6    999.0   0.00  
 240   22:00    0.0    64   77.9     5    327.5     6.0    999.0   0.00  
 240   22:10    0.0    64   77.8     6    333.0     8.4    999.0   0.00  
 240   22:20    0.0    63   79.5     7    340.1     8.4    999.0   0.00  
 240   22:30    0.0    63   80.1     7    341.3     8.4    999.0   0.00  
 240   22:40    0.0    63   81.0     7    341.4     8.4    999.0   0.00  
 240   22:50    0.0    62   81.5     8    341.6     9.6    999.0   0.00  
 240   23:00    0.0    62   82.2     8    341.8    11.3    999.0   0.00  
 240   23:10    0.0    62   84.4     8    356.5     9.6    999.0   0.00  
 240   23:20    0.0    62   84.5     8    350.2     9.6    999.0   0.00  
 240   23:30    0.0    61   86.3     8      6.2     9.6    999.0   0.00  
 240   23:40    0.0    61   85.8     8    352.7    11.9    999.0   0.00  
 240   23:50    0.0    61   85.7     8    342.0     9.6    999.0   0.00  
 241    0:00    0.0    61   86.0     9    340.1    11.9    999.0   0.00  
 241    0:10    0.0    61   86.4     9    353.3    12.5    999.0   0.00  
 241    0:20    0.0    62   85.1     8    350.8    10.8    999.0   0.00  
 241    0:30    0.0    64   79.2     8    341.1    10.2    999.0   0.00  
 241    0:40    0.0    63   79.1     8    351.5    10.8    999.0   0.00  
 241    0:50    0.0    63   81.6    10      1.5    11.9    999.0   0.00  
 241    1:00    0.0    63   81.2    10      3.0    12.5    999.0   0.00  
 241    1:10    0.0    63   81.9     9      2.3    11.3    999.0   0.00  
 241    1:20    0.0    63   80.6     7      0.7     9.0    999.0   0.00  
 241    1:30    0.0    62   82.5     8      0.8    10.8    999.0   0.00  
 241    1:40    0.0    62   84.2     8      1.0     9.0    999.0   0.00  
 241    1:50    0.0    62   83.1     8      1.0     9.6    999.0   0.00  
 241    2:00    0.0    63   77.8     6      0.9     7.8    999.0   0.00  
 241    2:10    0.0    63   79.0     7      0.9     9.0    999.0   0.00  
 241    2:20    0.0    63   77.8     7      0.7     8.4    999.0   0.00  
 241    2:30    0.0    62   79.0     6      0.5     8.4    999.0   0.00  
 241    2:40    0.0    62   81.6     8      0.1     9.6    999.0   0.00  
 241    2:50    0.0    62   81.4     9    349.9    10.2    999.0   0.00  
 241    3:00    0.0    62   81.1     8    349.5    10.8    999.0   0.00  
 241    3:10    0.0    61   82.1     5    349.3     7.2    999.0   0.00  
 241    3:20    0.0    62   82.0     5    349.3     7.2    999.0   0.00  
 241    3:30    0.0    62   81.7     5    349.3     7.2    999.0   0.00  
 241    3:40    0.0    62   80.3     7    357.6     8.4    999.0   0.00  
 241    3:50    0.0    63   79.7     5     24.6     7.2    999.0   0.00  
 241    4:00    0.0    63   78.4     8      2.5     8.4    999.0   0.00  
 241    4:10    0.0    64   76.7     6      1.4     7.8    999.0   0.00  
 241    4:20    0.0    63   76.6     7      1.6     8.4    999.0   0.00  
 241    4:30    0.0    63   78.4     8      3.5     9.6    999.0   0.00  
 241    4:40    0.0    62   77.1     8      3.5     9.0    999.0   0.00  
 241    4:50    0.0    63   74.7     7      3.2     7.8    999.0   0.00  
 241    5:00    0.0    64   72.7     7      3.3     8.4    999.0   0.00  
 241    5:10    0.0    64   72.6     7      3.2     7.8    999.0   0.00  
 241    5:20    1.0    63   70.4     8      5.0     9.6    999.0   0.00  
 241    5:30    3.0    64   69.0     8     10.3    10.2    999.0   0.00  
 241    5:40    9.0    63   71.7     7     12.4     9.0    999.0   0.00  
 241    5:50   28.0    63   71.4     7     11.7     8.4    999.0   0.00  
 241    6:00   53.0    64   68.8     6     12.1     7.8    999.0   0.00  
 241    6:10   83.0    66   68.9     6     12.7     7.2    999.0   0.00  
 241    6:20  113.0    66   66.6     5     11.7     6.0    999.0   0.00  
 241    6:30  146.0    67   65.4     4     10.8     6.0    999.0   0.00  
 241    6:40  179.0    68   64.6     4      1.0     6.6    999.0   0.00  
 241    6:50  212.0    68   65.6     4      0.7     6.0    999.0   0.00  
 241    7:00  246.0    68   66.5     4      0.6     7.2    999.0   0.00  
 241    7:10  281.0    67   72.8     4      0.5     6.0    999.0   0.00  
 241    7:20  315.0    66   77.8     4      0.5     6.6    999.0   0.00  
 241    7:30  350.0    67   72.0     3      0.5     6.0    999.0   0.00  
 241    7:40  386.0    68   74.7     4    355.7     7.2    999.0   0.00  
 241    7:50  419.0    65   83.4     6    336.7     7.2    999.0   0.00  
 241    8:00  451.0    64   84.8     6    317.0     9.0    999.0   0.00  
 241    8:10  483.0    65   84.1     5    301.3     7.2    999.0   0.00  
 241    8:20  514.0    65   82.3     7    287.9     9.6    999.0   0.00  
 241    8:30  544.0    66   81.3     7    284.9    10.2    999.0   0.00  
 241    8:40  575.0    65   83.3    10    252.7    11.9    999.0   0.00  
 241    8:50  605.0    66   81.0     7    278.6    10.8    999.0   0.00  
 241    9:00  634.0    67   78.9     5    324.7     7.2    999.0   0.00  
 241    9:10  661.0    68   77.6     4    326.0     6.6    999.0   0.00  
 241    9:20  689.0    68   78.4     5    325.8     7.2    999.0   0.00  
 241    9:30  714.0    70   76.1     4    326.0     6.0    999.0   0.00  
 241    9:40  738.0    70   74.5     4    326.0     6.6    999.0   0.00  
 241    9:50  761.0    69   76.7     5    319.2     9.0    999.0   0.00  
 241   10:00  782.0    70   76.8     4    326.0     6.6    999.0   0.00  
 241   10:10  803.0    72   72.0     4    326.2     6.0    999.0   0.00  
 241   10:20  821.0    70   75.2     4    325.9     6.6    999.0   0.00  
 241   10:30  838.0    70   75.2     5    325.6     7.8    999.0   0.00  
 241   10:40  853.0    70   76.8     5    325.6     7.8    999.0   0.00  
 241   10:50  867.0    70   75.0     5    325.7     8.4    999.0   0.00  
 241   11:00  879.0    71   73.3     4    312.1     7.8    999.0   0.00  
 241   11:10  890.0    74   68.8     4    322.1     7.2    999.0   0.00  
 241   11:20  899.0    76   65.9     3    338.1     4.8    999.0   0.00  
 241   11:30  905.0    76   65.2     3    337.3     6.6    999.0   0.00  
 241   11:40  910.0    76   65.3     4    337.0     5.4    999.0   0.00  
 241   11:50  914.0    76   66.5     3    336.6     6.0    999.0   0.00  
 241   12:00  915.0    76   65.5     3    336.5     7.2    999.0   0.00  
 241   12:10  915.0    78   62.2     3    336.7     6.6    999.0   0.00  
 241   12:20  912.0    79   60.4     3    336.6     6.0    999.0   0.00  
 241   12:30  907.0    77   61.0     4    336.4     6.6    999.0   0.00  
 241   12:40  902.0    77   61.2     3    336.5     5.4    999.0   0.00  
 241   12:50  894.0    78   59.5     2    336.5     4.8    999.0   0.00  
 241   13:00  886.0    79   58.8     3    336.5     6.6    999.0   0.00  
 241   13:10  875.0    79   59.3     2    336.5     4.8    999.0   0.00  
 241   13:20  862.0    80   58.9     3    337.1     5.4    999.0   0.00  
 241   13:30  848.0    80   58.1     3    338.7     5.4    999.0   0.00  
 241   13:40  831.0    80   58.8     3    338.6     5.4    999.0   0.00  
 241   13:50  814.0    81   57.3     3    338.6     5.4    999.0   0.00  
 241   14:00  795.0    81   57.0     3    338.3     4.8    999.0   0.00  
 241   14:10  774.0    82   55.0     3    338.5     5.4    999.0   0.00  
 241   14:20  753.0    82   54.5     3    338.6     5.4    999.0   0.00  

Return to Silver Peak Trail graphs page.


Western Regional Climate Center,wrcc@dri.edu